sensor_id;sensor_type;location;lat;lon;timestamp;temperature;humidity
3548;DHT22;1788;49.400;11.092;2023-04-16T00:00:29;11.00;67.80
3548;DHT22;1788;49.400;11.092;2023-04-16T00:02:56;11.00;67.80
3548;DHT22;1788;49.400;11.092;2023-04-16T00:05:23;11.00;67.90
3548;DHT22;1788;49.400;11.092;2023-04-16T00:07:49;11.00;67.90
3548;DHT22;1788;49.400;11.092;2023-04-16T00:10:16;11.00;67.90
3548;DHT22;1788;49.400;11.092;2023-04-16T00:12:43;11.00;67.90
3548;DHT22;1788;49.400;11.092;2023-04-16T00:15:09;11.00;67.90
3548;DHT22;1788;49.400;11.092;2023-04-16T00:17:36;11.00;67.90
3548;DHT22;1788;49.400;11.092;2023-04-16T00:20:03;11.00;68.00
3548;DHT22;1788;49.400;11.092;2023-04-16T00:22:30;11.00;68.00
3548;DHT22;1788;49.400;11.092;2023-04-16T00:24:56;11.00;68.00
3548;DHT22;1788;49.400;11.092;2023-04-16T00:27:23;11.00;68.00
3548;DHT22;1788;49.400;11.092;2023-04-16T00:29:50;11.00;68.10
3548;DHT22;1788;49.400;11.092;2023-04-16T00:32:16;11.00;68.20
3548;DHT22;1788;49.400;11.092;2023-04-16T00:34:43;11.00;68.20
3548;DHT22;1788;49.400;11.092;2023-04-16T00:37:09;11.00;68.20
3548;DHT22;1788;49.400;11.092;2023-04-16T00:39:36;10.90;68.10
3548;DHT22;1788;49.400;11.092;2023-04-16T00:42:03;10.90;68.30
3548;DHT22;1788;49.400;11.092;2023-04-16T00:44:30;10.90;68.30
3548;DHT22;1788;49.400;11.092;2023-04-16T00:46:57;10.90;68.30
3548;DHT22;1788;49.400;11.092;2023-04-16T00:49:23;10.90;68.30
3548;DHT22;1788;49.400;11.092;2023-04-16T00:51:50;10.90;68.30
3548;DHT22;1788;49.400;11.092;2023-04-16T00:54:16;10.90;68.40
3548;DHT22;1788;49.400;11.092;2023-04-16T00:56:43;10.90;68.50
3548;DHT22;1788;49.400;11.092;2023-04-16T00:59:10;10.90;68.40
3548;DHT22;1788;49.400;11.092;2023-04-16T01:01:36;10.90;68.50
3548;DHT22;1788;49.400;11.092;2023-04-16T01:04:04;10.80;68.40
3548;DHT22;1788;49.400;11.092;2023-04-16T01:06:30;10.80;68.40
3548;DHT22;1788;49.400;11.092;2023-04-16T01:08:57;10.90;68.50
3548;DHT22;1788;49.400;11.092;2023-04-16T01:11:23;10.90;68.50
3548;DHT22;1788;49.400;11.092;2023-04-16T01:13:50;10.90;68.50
3548;DHT22;1788;49.400;11.092;2023-04-16T01:16:17;10.90;68.50
3548;DHT22;1788;49.400;11.092;2023-04-16T01:18:43;10.90;68.40
3548;DHT22;1788;49.400;11.092;2023-04-16T01:21:10;10.90;68.30
3548;DHT22;1788;49.400;11.092;2023-04-16T01:23:37;10.90;68.30
3548;DHT22;1788;49.400;11.092;2023-04-16T01:26:04;10.90;68.40
3548;DHT22;1788;49.400;11.092;2023-04-16T01:28:31;10.90;68.40
3548;DHT22;1788;49.400;11.092;2023-04-16T01:30:57;10.90;68.40
3548;DHT22;1788;49.400;11.092;2023-04-16T01:33:24;11.00;68.50
3548;DHT22;1788;49.400;11.092;2023-04-16T01:35:50;11.00;68.50
3548;DHT22;1788;49.400;11.092;2023-04-16T01:38:17;11.00;68.50
3548;DHT22;1788;49.400;11.092;2023-04-16T01:40:44;11.00;68.60
3548;DHT22;1788;49.400;11.092;2023-04-16T01:43:10;11.00;68.60
3548;DHT22;1788;49.400;11.092;2023-04-16T01:45:37;11.00;68.60
3548;DHT22;1788;49.400;11.092;2023-04-16T01:48:04;11.00;68.50
3548;DHT22;1788;49.400;11.092;2023-04-16T01:50:30;11.00;68.40
3548;DHT22;1788;49.400;11.092;2023-04-16T01:52:57;11.10;68.50
3548;DHT22;1788;49.400;11.092;2023-04-16T01:55:23;11.10;68.40
3548;DHT22;1788;49.400;11.092;2023-04-16T01:57:50;11.10;68.40
3548;DHT22;1788;49.400;11.092;2023-04-16T02:00:16;11.10;68.30
3548;DHT22;1788;49.400;11.092;2023-04-16T02:02:43;11.10;68.30
3548;DHT22;1788;49.400;11.092;2023-04-16T02:05:10;11.10;68.40
3548;DHT22;1788;49.400;11.092;2023-04-16T02:07:37;11.10;68.40
3548;DHT22;1788;49.400;11.092;2023-04-16T02:10:04;11.10;68.30
3548;DHT22;1788;49.400;11.092;2023-04-16T02:12:30;11.10;68.30
3548;DHT22;1788;49.400;11.092;2023-04-16T02:14:57;11.10;68.40
3548;DHT22;1788;49.400;11.092;2023-04-16T02:17:24;11.10;68.40
3548;DHT22;1788;49.400;11.092;2023-04-16T02:19:50;11.20;68.40
3548;DHT22;1788;49.400;11.092;2023-04-16T02:22:17;11.20;68.50
3548;DHT22;1788;49.400;11.092;2023-04-16T02:24:43;11.20;68.40
3548;DHT22;1788;49.400;11.092;2023-04-16T02:27:11;11.20;68.40
3548;DHT22;1788;49.400;11.092;2023-04-16T02:29:37;11.10;68.30
3548;DHT22;1788;49.400;11.092;2023-04-16T02:32:05;11.20;68.50
3548;DHT22;1788;49.400;11.092;2023-04-16T02:34:31;11.10;68.30
3548;DHT22;1788;49.400;11.092;2023-04-16T02:36:58;11.20;68.50
3548;DHT22;1788;49.400;11.092;2023-04-16T02:39:25;11.20;68.50
3548;DHT22;1788;49.400;11.092;2023-04-16T02:41:51;11.20;68.50
3548;DHT22;1788;49.400;11.092;2023-04-16T02:44:18;11.20;68.50
3548;DHT22;1788;49.400;11.092;2023-04-16T02:46:44;11.20;68.40
3548;DHT22;1788;49.400;11.092;2023-04-16T02:49:11;11.20;68.40
3548;DHT22;1788;49.400;11.092;2023-04-16T02:51:38;11.20;68.40
3548;DHT22;1788;49.400;11.092;2023-04-16T02:54:04;11.20;68.40
3548;DHT22;1788;49.400;11.092;2023-04-16T02:56:31;11.20;68.30
3548;DHT22;1788;49.400;11.092;2023-04-16T02:58:57;11.20;68.20
3548;DHT22;1788;49.400;11.092;2023-04-16T03:01:24;11.20;68.20
3548;DHT22;1788;49.400;11.092;2023-04-16T03:03:51;11.20;68.10
3548;DHT22;1788;49.400;11.092;2023-04-16T03:06:17;11.20;68.00
3548;DHT22;1788;49.400;11.092;2023-04-16T03:08:44;11.20;68.10
3548;DHT22;1788;49.400;11.092;2023-04-16T03:11:10;11.20;68.10
3548;DHT22;1788;49.400;11.092;2023-04-16T03:13:37;11.20;68.20
3548;DHT22;1788;49.400;11.092;2023-04-16T03:16:04;11.20;68.20
3548;DHT22;1788;49.400;11.092;2023-04-16T03:18:30;11.20;68.20
3548;DHT22;1788;49.400;11.092;2023-04-16T03:20:57;11.20;68.30
3548;DHT22;1788;49.400;11.092;2023-04-16T03:23:24;11.20;68.30
3548;DHT22;1788;49.400;11.092;2023-04-16T03:25:50;11.20;68.20
3548;DHT22;1788;49.400;11.092;2023-04-16T03:28:17;11.20;68.20
3548;DHT22;1788;49.400;11.092;2023-04-16T03:30:48;11.20;68.20
3548;DHT22;1788;49.400;11.092;2023-04-16T03:33:10;11.20;68.30
3548;DHT22;1788;49.400;11.092;2023-04-16T03:35:37;11.20;68.30
3548;DHT22;1788;49.400;11.092;2023-04-16T03:38:04;11.20;68.30
3548;DHT22;1788;49.400;11.092;2023-04-16T03:40:31;11.20;68.30
3548;DHT22;1788;49.400;11.092;2023-04-16T03:42:57;11.20;68.30
3548;DHT22;1788;49.400;11.092;2023-04-16T03:45:24;11.20;68.40
3548;DHT22;1788;49.400;11.092;2023-04-16T03:47:50;11.20;68.40
3548;DHT22;1788;49.400;11.092;2023-04-16T03:52:44;11.20;68.40
3548;DHT22;1788;49.400;11.092;2023-04-16T03:55:10;11.20;68.40
3548;DHT22;1788;49.400;11.092;2023-04-16T03:57:37;11.20;68.40
3548;DHT22;1788;49.400;11.092;2023-04-16T04:00:04;11.20;69.30
3548;DHT22;1788;49.400;11.092;2023-04-16T04:02:30;11.20;68.50
3548;DHT22;1788;49.400;11.092;2023-04-16T04:04:57;11.10;68.40
3548;DHT22;1788;49.400;11.092;2023-04-16T04:07:23;11.20;68.50
3548;DHT22;1788;49.400;11.092;2023-04-16T04:09:50;11.20;68.50
3548;DHT22;1788;49.400;11.092;2023-04-16T04:12:17;11.20;68.50
3548;DHT22;1788;49.400;11.092;2023-04-16T04:14:43;11.20;68.70
3548;DHT22;1788;49.400;11.092;2023-04-16T04:17:11;11.20;68.70
3548;DHT22;1788;49.400;11.092;2023-04-16T04:19:37;11.10;68.50
3548;DHT22;1788;49.400;11.092;2023-04-16T04:22:05;11.20;68.70
3548;DHT22;1788;49.400;11.092;2023-04-16T04:24:31;11.10;68.50
3548;DHT22;1788;49.400;11.092;2023-04-16T04:26:58;11.20;68.70
3548;DHT22;1788;49.400;11.092;2023-04-16T04:29:24;11.20;68.70
3548;DHT22;1788;49.400;11.092;2023-04-16T04:31:51;11.20;68.70
3548;DHT22;1788;49.400;11.092;2023-04-16T04:34:18;11.20;68.80
3548;DHT22;1788;49.400;11.092;2023-04-16T04:36:44;11.20;68.80
3548;DHT22;1788;49.400;11.092;2023-04-16T04:39:11;11.20;68.70
3548;DHT22;1788;49.400;11.092;2023-04-16T04:41:37;11.20;68.70
3548;DHT22;1788;49.400;11.092;2023-04-16T04:44:05;11.20;68.70
3548;DHT22;1788;49.400;11.092;2023-04-16T04:46:31;11.20;68.70
3548;DHT22;1788;49.400;11.092;2023-04-16T04:48:59;11.20;68.80
3548;DHT22;1788;49.400;11.092;2023-04-16T04:51:25;11.20;68.80
3548;DHT22;1788;49.400;11.092;2023-04-16T04:53:52;11.20;68.80
3548;DHT22;1788;49.400;11.092;2023-04-16T04:56:19;11.20;68.80
3548;DHT22;1788;49.400;11.092;2023-04-16T04:58:45;11.20;68.90
3548;DHT22;1788;49.400;11.092;2023-04-16T05:01:12;11.20;68.90
3548;DHT22;1788;49.400;11.092;2023-04-16T05:03:38;11.20;68.90
3548;DHT22;1788;49.400;11.092;2023-04-16T05:06:05;11.20;68.90
3548;DHT22;1788;49.400;11.092;2023-04-16T05:08:32;11.30;69.00
3548;DHT22;1788;49.400;11.092;2023-04-16T05:10:59;11.30;69.10
3548;DHT22;1788;49.400;11.092;2023-04-16T05:13:26;11.30;69.10
3548;DHT22;1788;49.400;11.092;2023-04-16T05:15:52;11.30;69.10
3548;DHT22;1788;49.400;11.092;2023-04-16T05:18:19;11.30;69.10
3548;DHT22;1788;49.400;11.092;2023-04-16T05:20:46;11.40;69.20
3548;DHT22;1788;49.400;11.092;2023-04-16T05:23:12;11.40;69.20
3548;DHT22;1788;49.400;11.092;2023-04-16T05:25:39;11.40;69.30
3548;DHT22;1788;49.400;11.092;2023-04-16T05:28:05;11.40;69.40
3548;DHT22;1788;49.400;11.092;2023-04-16T05:30:32;11.40;69.40
3548;DHT22;1788;49.400;11.092;2023-04-16T05:32:59;11.40;69.40
3548;DHT22;1788;49.400;11.092;2023-04-16T05:35:25;11.50;69.50
3548;DHT22;1788;49.400;11.092;2023-04-16T05:37:52;11.50;69.40
3548;DHT22;1788;49.400;11.092;2023-04-16T05:40:18;11.50;69.40
3548;DHT22;1788;49.400;11.092;2023-04-16T05:42:45;11.60;69.50
3548;DHT22;1788;49.400;11.092;2023-04-16T05:45:12;11.60;69.40
3548;DHT22;1788;49.400;11.092;2023-04-16T05:47:38;11.60;69.40
3548;DHT22;1788;49.400;11.092;2023-04-16T05:50:05;11.70;69.50
3548;DHT22;1788;49.400;11.092;2023-04-16T05:52:32;11.70;69.40
3548;DHT22;1788;49.400;11.092;2023-04-16T05:54:59;11.70;69.30
3548;DHT22;1788;49.400;11.092;2023-04-16T05:57:27;11.70;69.50
3548;DHT22;1788;49.400;11.092;2023-04-16T05:59:53;11.70;69.50
3548;DHT22;1788;49.400;11.092;2023-04-16T06:02:19;11.80;69.50
3548;DHT22;1788;49.400;11.092;2023-04-16T06:04:46;11.80;69.30
3548;DHT22;1788;49.400;11.092;2023-04-16T06:07:13;11.80;69.30
3548;DHT22;1788;49.400;11.092;2023-04-16T06:09:39;11.80;69.60
3548;DHT22;1788;49.400;11.092;2023-04-16T06:12:06;12.10;70.70
3548;DHT22;1788;49.400;11.092;2023-04-16T06:14:33;12.40;70.80
3548;DHT22;1788;49.400;11.092;2023-04-16T06:16:59;12.50;70.10
3548;DHT22;1788;49.400;11.092;2023-04-16T06:19:26;12.60;69.60
3548;DHT22;1788;49.400;11.092;2023-04-16T06:21:52;12.60;69.30
3548;DHT22;1788;49.400;11.092;2023-04-16T06:24:19;12.60;69.00
3548;DHT22;1788;49.400;11.092;2023-04-16T06:26:46;12.60;68.70
3548;DHT22;1788;49.400;11.092;2023-04-16T06:29:12;12.60;68.60
3548;DHT22;1788;49.400;11.092;2023-04-16T06:31:39;12.50;68.60
3548;DHT22;1788;49.400;11.092;2023-04-16T06:34:05;12.50;68.70
3548;DHT22;1788;49.400;11.092;2023-04-16T06:36:32;12.40;68.60
3548;DHT22;1788;49.400;11.092;2023-04-16T06:38:59;12.40;68.70
3548;DHT22;1788;49.400;11.092;2023-04-16T06:41:26;12.40;68.60
3548;DHT22;1788;49.400;11.092;2023-04-16T06:43:53;12.40;68.60
3548;DHT22;1788;49.400;11.092;2023-04-16T06:46:19;12.40;68.60
3548;DHT22;1788;49.400;11.092;2023-04-16T06:48:46;12.40;68.70
3548;DHT22;1788;49.400;11.092;2023-04-16T06:51:13;12.40;68.80
3548;DHT22;1788;49.400;11.092;2023-04-16T06:53:40;12.40;68.80
3548;DHT22;1788;49.400;11.092;2023-04-16T06:56:07;12.40;68.80
3548;DHT22;1788;49.400;11.092;2023-04-16T06:58:33;12.40;68.80
3548;DHT22;1788;49.400;11.092;2023-04-16T07:01:00;12.40;68.80
3548;DHT22;1788;49.400;11.092;2023-04-16T07:03:26;12.40;68.70
3548;DHT22;1788;49.400;11.092;2023-04-16T07:05:54;12.40;69.30
3548;DHT22;1788;49.400;11.092;2023-04-16T07:08:24;12.40;68.50
3548;DHT22;1788;49.400;11.092;2023-04-16T07:10:50;12.40;68.40
3548;DHT22;1788;49.400;11.092;2023-04-16T07:13:17;12.40;68.40
3548;DHT22;1788;49.400;11.092;2023-04-16T07:15:44;12.40;68.40
3548;DHT22;1788;49.400;11.092;2023-04-16T07:18:10;12.40;68.30
3548;DHT22;1788;49.400;11.092;2023-04-16T07:20:37;12.40;68.40
3548;DHT22;1788;49.400;11.092;2023-04-16T07:23:04;12.40;68.50
3548;DHT22;1788;49.400;11.092;2023-04-16T07:25:31;12.40;68.50
3548;DHT22;1788;49.400;11.092;2023-04-16T07:27:57;12.40;68.40
3548;DHT22;1788;49.400;11.092;2023-04-16T07:30:24;12.40;68.40
3548;DHT22;1788;49.400;11.092;2023-04-16T07:32:51;12.40;68.40
3548;DHT22;1788;49.400;11.092;2023-04-16T07:35:17;12.40;68.40
3548;DHT22;1788;49.400;11.092;2023-04-16T07:37:44;12.40;68.40
3548;DHT22;1788;49.400;11.092;2023-04-16T07:40:10;12.50;68.40
3548;DHT22;1788;49.400;11.092;2023-04-16T07:42:37;12.50;68.40
3548;DHT22;1788;49.400;11.092;2023-04-16T07:45:04;12.40;68.30
3548;DHT22;1788;49.400;11.092;2023-04-16T07:47:30;12.50;68.30
3548;DHT22;1788;49.400;11.092;2023-04-16T07:49:57;12.50;68.10
3548;DHT22;1788;49.400;11.092;2023-04-16T07:52:24;12.40;67.90
3548;DHT22;1788;49.400;11.092;2023-04-16T07:54:52;12.40;68.00
3548;DHT22;1788;49.400;11.092;2023-04-16T07:57:18;12.40;68.00
3548;DHT22;1788;49.400;11.092;2023-04-16T07:59:45;12.40;68.00
3548;DHT22;1788;49.400;11.092;2023-04-16T08:02:13;12.40;68.30
3548;DHT22;1788;49.400;11.092;2023-04-16T08:04:38;12.40;68.30
3548;DHT22;1788;49.400;11.092;2023-04-16T08:07:05;12.50;68.50
3548;DHT22;1788;49.400;11.092;2023-04-16T08:09:32;12.60;68.50
3548;DHT22;1788;49.400;11.092;2023-04-16T08:11:59;12.70;68.60
3548;DHT22;1788;49.400;11.092;2023-04-16T08:14:26;12.70;68.50
3548;DHT22;1788;49.400;11.092;2023-04-16T08:16:53;12.90;68.40
3548;DHT22;1788;49.400;11.092;2023-04-16T08:19:20;12.90;68.40
3548;DHT22;1788;49.400;11.092;2023-04-16T08:21:47;13.00;67.90
3548;DHT22;1788;49.400;11.092;2023-04-16T08:24:14;12.90;67.70
3548;DHT22;1788;49.400;11.092;2023-04-16T08:26:41;13.00;67.80
3548;DHT22;1788;49.400;11.092;2023-04-16T08:29:08;13.00;67.80
3548;DHT22;1788;49.400;11.092;2023-04-16T08:31:35;13.10;67.80
3548;DHT22;1788;49.400;11.092;2023-04-16T08:34:01;13.10;67.70
3548;DHT22;1788;49.400;11.092;2023-04-16T08:36:28;13.20;67.60
3548;DHT22;1788;49.400;11.092;2023-04-16T08:38:54;13.30;67.60
3548;DHT22;1788;49.400;11.092;2023-04-16T08:41:21;13.40;67.60
3548;DHT22;1788;49.400;11.092;2023-04-16T08:43:48;13.50;67.60
3548;DHT22;1788;49.400;11.092;2023-04-16T08:46:15;13.60;67.00
3548;DHT22;1788;49.400;11.092;2023-04-16T08:48:42;13.70;67.20
3548;DHT22;1788;49.400;11.092;2023-04-16T08:51:09;13.70;67.20
3548;DHT22;1788;49.400;11.092;2023-04-16T08:53:38;13.80;67.00
3548;DHT22;1788;49.400;11.092;2023-04-16T08:56:02;13.80;66.70
3548;DHT22;1788;49.400;11.092;2023-04-16T08:58:28;13.90;66.60
3548;DHT22;1788;49.400;11.092;2023-04-16T09:00:55;14.00;66.10
3548;DHT22;1788;49.400;11.092;2023-04-16T09:03:22;14.00;66.10
3548;DHT22;1788;49.400;11.092;2023-04-16T09:05:49;14.10;66.30
3548;DHT22;1788;49.400;11.092;2023-04-16T09:08:16;14.10;66.20
3548;DHT22;1788;49.400;11.092;2023-04-16T09:10:43;14.30;66.00
3548;DHT22;1788;49.400;11.092;2023-04-16T09:13:10;14.30;65.70
3548;DHT22;1788;49.400;11.092;2023-04-16T09:15:37;14.40;65.30
3548;DHT22;1788;49.400;11.092;2023-04-16T09:18:04;14.40;65.00
3548;DHT22;1788;49.400;11.092;2023-04-16T09:20:30;14.40;64.80
3548;DHT22;1788;49.400;11.092;2023-04-16T09:22:57;14.40;64.60
3548;DHT22;1788;49.400;11.092;2023-04-16T09:25:24;14.40;64.60
3548;DHT22;1788;49.400;11.092;2023-04-16T09:27:50;14.40;64.90
3548;DHT22;1788;49.400;11.092;2023-04-16T09:30:18;14.40;64.60
3548;DHT22;1788;49.400;11.092;2023-04-16T09:32:43;14.40;64.30
3548;DHT22;1788;49.400;11.092;2023-04-16T09:35:10;14.40;64.20
3548;DHT22;1788;49.400;11.092;2023-04-16T09:37:37;14.30;64.00
3548;DHT22;1788;49.400;11.092;2023-04-16T09:40:04;14.30;63.80
3548;DHT22;1788;49.400;11.092;2023-04-16T09:42:32;14.30;63.80
3548;DHT22;1788;49.400;11.092;2023-04-16T09:44:58;14.30;64.20
3548;DHT22;1788;49.400;11.092;2023-04-16T09:47:25;14.30;63.70
3548;DHT22;1788;49.400;11.092;2023-04-16T09:49:51;14.30;63.70
3548;DHT22;1788;49.400;11.092;2023-04-16T09:52:19;14.30;63.60
3548;DHT22;1788;49.400;11.092;2023-04-16T09:54:45;14.20;63.60
3548;DHT22;1788;49.400;11.092;2023-04-16T09:57:11;14.20;63.40
3548;DHT22;1788;49.400;11.092;2023-04-16T09:59:39;14.10;63.10
3548;DHT22;1788;49.400;11.092;2023-04-16T10:02:06;14.10;63.10
3548;DHT22;1788;49.400;11.092;2023-04-16T10:07:02;13.90;63.10
3548;DHT22;1788;49.400;11.092;2023-04-16T10:09:28;13.80;63.50
3548;DHT22;1788;49.400;11.092;2023-04-16T10:11:53;13.70;63.40
3548;DHT22;1788;49.400;11.092;2023-04-16T10:14:20;13.70;63.50
3548;DHT22;1788;49.400;11.092;2023-04-16T10:16:46;13.60;63.50
3548;DHT22;1788;49.400;11.092;2023-04-16T10:19:14;13.60;63.70
3548;DHT22;1788;49.400;11.092;2023-04-16T10:21:40;13.50;63.70
3548;DHT22;1788;49.400;11.092;2023-04-16T10:24:08;13.50;63.80
3548;DHT22;1788;49.400;11.092;2023-04-16T10:26:36;13.50;63.80
3548;DHT22;1788;49.400;11.092;2023-04-16T10:29:03;13.50;63.80
3548;DHT22;1788;49.400;11.092;2023-04-16T10:31:29;13.50;63.80
3548;DHT22;1788;49.400;11.092;2023-04-16T10:33:56;13.60;63.90
3548;DHT22;1788;49.400;11.092;2023-04-16T10:36:23;13.50;63.70
3548;DHT22;1788;49.400;11.092;2023-04-16T10:38:50;13.60;63.80
3548;DHT22;1788;49.400;11.092;2023-04-16T10:41:16;13.50;63.70
3548;DHT22;1788;49.400;11.092;2023-04-16T10:43:43;13.50;63.70
3548;DHT22;1788;49.400;11.092;2023-04-16T10:48:36;13.50;63.70
3548;DHT22;1788;49.400;11.092;2023-04-16T10:51:03;13.50;63.80
3548;DHT22;1788;49.400;11.092;2023-04-16T10:53:29;13.50;63.80
3548;DHT22;1788;49.400;11.092;2023-04-16T11:00:50;13.50;64.00
3548;DHT22;1788;49.400;11.092;2023-04-16T11:03:17;13.50;64.10
3548;DHT22;1788;49.400;11.092;2023-04-16T11:05:44;13.50;64.00
3548;DHT22;1788;49.400;11.092;2023-04-16T11:10:37;13.60;64.10
3548;DHT22;1788;49.400;11.092;2023-04-16T11:13:03;13.60;64.10
3548;DHT22;1788;49.400;11.092;2023-04-16T11:15:31;13.60;64.10
3548;DHT22;1788;49.400;11.092;2023-04-16T11:17:57;13.60;64.00
3548;DHT22;1788;49.400;11.092;2023-04-16T11:20:25;13.60;64.90
3548;DHT22;1788;49.400;11.092;2023-04-16T11:22:52;13.60;64.10
3548;DHT22;1788;49.400;11.092;2023-04-16T11:27:44;13.60;64.30
3548;DHT22;1788;49.400;11.092;2023-04-16T11:30:11;13.60;64.30
3548;DHT22;1788;49.400;11.092;2023-04-16T11:32:38;13.60;64.40
3548;DHT22;1788;49.400;11.092;2023-04-16T11:39:59;13.80;64.60
3548;DHT22;1788;49.400;11.092;2023-04-16T11:42:27;13.80;64.60
3548;DHT22;1788;49.400;11.092;2023-04-16T11:44:55;13.90;64.30
3548;DHT22;1788;49.400;11.092;2023-04-16T11:47:21;13.90;64.30
3548;DHT22;1788;49.400;11.092;2023-04-16T11:49:48;14.00;64.20
3548;DHT22;1788;49.400;11.092;2023-04-16T11:54:41;14.10;64.20
3548;DHT22;1788;49.400;11.092;2023-04-16T11:57:08;14.20;64.20
3548;DHT22;1788;49.400;11.092;2023-04-16T11:59:35;14.30;64.00
3548;DHT22;1788;49.400;11.092;2023-04-16T12:02:01;14.40;63.60
3548;DHT22;1788;49.400;11.092;2023-04-16T12:04:28;14.50;63.30
3548;DHT22;1788;49.400;11.092;2023-04-16T12:09:22;14.80;63.20
3548;DHT22;1788;49.400;11.092;2023-04-16T12:11:48;14.90;62.90
3548;DHT22;1788;49.400;11.092;2023-04-16T12:14:14;15.10;62.30
3548;DHT22;1788;49.400;11.092;2023-04-16T12:16:41;15.10;61.70
3548;DHT22;1788;49.400;11.092;2023-04-16T12:19:10;15.10;61.30
3548;DHT22;1788;49.400;11.092;2023-04-16T12:21:35;15.00;61.10
3548;DHT22;1788;49.400;11.092;2023-04-16T12:24:01;15.00;61.00
3548;DHT22;1788;49.400;11.092;2023-04-16T12:26:34;14.90;60.80
3548;DHT22;1788;49.400;11.092;2023-04-16T12:28:55;14.90;60.60
3548;DHT22;1788;49.400;11.092;2023-04-16T12:31:35;14.80;60.50
3548;DHT22;1788;49.400;11.092;2023-04-16T12:36:17;14.70;60.60
3548;DHT22;1788;49.400;11.092;2023-04-16T12:38:43;14.70;60.80
3548;DHT22;1788;49.400;11.092;2023-04-16T12:41:10;14.60;61.20
3548;DHT22;1788;49.400;11.092;2023-04-16T12:43:37;14.50;61.90
3548;DHT22;1788;49.400;11.092;2023-04-16T12:46:03;14.60;61.70
3548;DHT22;1788;49.400;11.092;2023-04-16T12:48:30;14.70;62.10
3548;DHT22;1788;49.400;11.092;2023-04-16T12:50:56;14.70;62.00
3548;DHT22;1788;49.400;11.092;2023-04-16T12:53:24;14.80;62.20
3548;DHT22;1788;49.400;11.092;2023-04-16T12:55:50;14.80;62.20
3548;DHT22;1788;49.400;11.092;2023-04-16T12:58:17;14.90;62.30
3548;DHT22;1788;49.400;11.092;2023-04-16T13:00:44;15.10;62.30
3548;DHT22;1788;49.400;11.092;2023-04-16T13:03:10;15.20;62.30
3548;DHT22;1788;49.400;11.092;2023-04-16T13:05:37;15.20;62.00
3548;DHT22;1788;49.400;11.092;2023-04-16T13:08:04;15.50;61.70
3548;DHT22;1788;49.400;11.092;2023-04-16T13:10:31;15.50;61.70
3548;DHT22;1788;49.400;11.092;2023-04-16T13:12:58;15.50;61.10
3548;DHT22;1788;49.400;11.092;2023-04-16T13:15:25;15.50;61.00
3548;DHT22;1788;49.400;11.092;2023-04-16T13:17:52;15.50;60.70
3548;DHT22;1788;49.400;11.092;2023-04-16T13:20:19;15.50;60.60
3548;DHT22;1788;49.400;11.092;2023-04-16T13:22:45;15.50;60.50
3548;DHT22;1788;49.400;11.092;2023-04-16T13:25:12;15.50;60.40
3548;DHT22;1788;49.400;11.092;2023-04-16T13:27:39;15.50;60.20
3548;DHT22;1788;49.400;11.092;2023-04-16T13:30:06;15.50;60.10
3548;DHT22;1788;49.400;11.092;2023-04-16T13:32:33;15.50;60.10
3548;DHT22;1788;49.400;11.092;2023-04-16T13:35:00;15.40;59.40
3548;DHT22;1788;49.400;11.092;2023-04-16T13:37:27;15.40;59.70
3548;DHT22;1788;49.400;11.092;2023-04-16T13:39:53;15.40;59.80
3548;DHT22;1788;49.400;11.092;2023-04-16T13:42:20;15.30;59.70
3548;DHT22;1788;49.400;11.092;2023-04-16T13:44:46;15.30;59.80
3548;DHT22;1788;49.400;11.092;2023-04-16T13:47:14;15.30;59.70
3548;DHT22;1788;49.400;11.092;2023-04-16T13:49:41;15.20;59.60
3548;DHT22;1788;49.400;11.092;2023-04-16T13:52:08;15.30;59.70
3548;DHT22;1788;49.400;11.092;2023-04-16T13:54:34;15.30;59.60
3548;DHT22;1788;49.400;11.092;2023-04-16T13:57:02;15.40;59.60
3548;DHT22;1788;49.400;11.092;2023-04-16T13:59:30;15.40;59.40
3548;DHT22;1788;49.400;11.092;2023-04-16T14:01:57;15.50;59.50
3548;DHT22;1788;49.400;11.092;2023-04-16T14:04:23;15.50;59.40
3548;DHT22;1788;49.400;11.092;2023-04-16T14:06:50;15.70;59.40
3548;DHT22;1788;49.400;11.092;2023-04-16T14:09:16;15.90;59.20
3548;DHT22;1788;49.400;11.092;2023-04-16T14:11:44;17.50;58.90
3548;DHT22;1788;49.400;11.092;2023-04-16T14:14:10;17.50;58.20
3548;DHT22;1788;49.400;11.092;2023-04-16T14:16:37;18.60;56.70
3548;DHT22;1788;49.400;11.092;2023-04-16T14:19:05;18.80;55.60
3548;DHT22;1788;49.400;11.092;2023-04-16T14:21:31;18.90;55.50
3548;DHT22;1788;49.400;11.092;2023-04-16T14:23:58;18.80;55.40
3548;DHT22;1788;49.400;11.092;2023-04-16T14:26:24;18.70;55.30
3548;DHT22;1788;49.400;11.092;2023-04-16T14:28:51;18.60;55.30
3548;DHT22;1788;49.400;11.092;2023-04-16T14:31:18;19.10;55.20
3548;DHT22;1788;49.400;11.092;2023-04-16T14:33:45;19.10;55.20
3548;DHT22;1788;49.400;11.092;2023-04-16T14:36:12;19.20;54.60
3548;DHT22;1788;49.400;11.092;2023-04-16T14:38:39;19.20;54.10
3548;DHT22;1788;49.400;11.092;2023-04-16T14:41:06;19.10;54.10
3548;DHT22;1788;49.400;11.092;2023-04-16T14:43:32;19.20;54.10
3548;DHT22;1788;49.400;11.092;2023-04-16T14:45:59;19.70;53.60
3548;DHT22;1788;49.400;11.092;2023-04-16T14:48:26;19.80;53.00
3548;DHT22;1788;49.400;11.092;2023-04-16T14:50:53;19.80;53.20
3548;DHT22;1788;49.400;11.092;2023-04-16T14:53:21;19.60;52.90
3548;DHT22;1788;49.400;11.092;2023-04-16T14:55:48;19.60;52.80
3548;DHT22;1788;49.400;11.092;2023-04-16T14:58:16;19.30;52.90
3548;DHT22;1788;49.400;11.092;2023-04-16T15:00:42;19.30;52.80
3548;DHT22;1788;49.400;11.092;2023-04-16T15:03:10;19.00;53.00
3548;DHT22;1788;49.400;11.092;2023-04-16T15:05:37;19.00;53.00
3548;DHT22;1788;49.400;11.092;2023-04-16T15:08:04;18.80;52.90
3548;DHT22;1788;49.400;11.092;2023-04-16T15:10:30;18.70;52.80
3548;DHT22;1788;49.400;11.092;2023-04-16T15:12:57;18.50;52.70
3548;DHT22;1788;49.400;11.092;2023-04-16T15:15:23;18.30;52.90
3548;DHT22;1788;49.400;11.092;2023-04-16T15:17:50;18.10;53.10
3548;DHT22;1788;49.400;11.092;2023-04-16T15:20:17;17.90;53.30
3548;DHT22;1788;49.400;11.092;2023-04-16T15:22:44;17.50;53.40
3548;DHT22;1788;49.400;11.092;2023-04-16T15:25:11;17.50;53.40
3548;DHT22;1788;49.400;11.092;2023-04-16T15:27:38;17.10;53.70
3548;DHT22;1788;49.400;11.092;2023-04-16T15:30:05;17.10;53.70
3548;DHT22;1788;49.400;11.092;2023-04-16T15:32:32;16.90;54.70
3548;DHT22;1788;49.400;11.092;2023-04-16T15:35:00;16.80;54.10
3548;DHT22;1788;49.400;11.092;2023-04-16T15:37:25;16.80;54.30
3548;DHT22;1788;49.400;11.092;2023-04-16T15:39:52;16.80;54.50
3548;DHT22;1788;49.400;11.092;2023-04-16T15:42:18;16.90;54.60
3548;DHT22;1788;49.400;11.092;2023-04-16T15:44:46;17.10;54.80
3548;DHT22;1788;49.400;11.092;2023-04-16T15:47:12;17.10;54.80
3548;DHT22;1788;49.400;11.092;2023-04-16T15:49:40;17.40;54.70
3548;DHT22;1788;49.400;11.092;2023-04-16T15:52:06;17.40;54.60
3548;DHT22;1788;49.400;11.092;2023-04-16T15:54:34;17.70;54.40
3548;DHT22;1788;49.400;11.092;2023-04-16T15:57:00;17.60;54.30
3548;DHT22;1788;49.400;11.092;2023-04-16T15:59:28;17.70;54.10
3548;DHT22;1788;49.400;11.092;2023-04-16T16:01:54;17.70;54.00
3548;DHT22;1788;49.400;11.092;2023-04-16T16:04:21;17.60;54.00
3548;DHT22;1788;49.400;11.092;2023-04-16T16:06:48;17.50;54.00
3548;DHT22;1788;49.400;11.092;2023-04-16T16:09:14;17.40;54.10